Lazar Rajkovic

Recruteur en chef - Partizan
20 Janv 2028
Jeudi
Processus

Personnalité

Adaptabilité (5) Ambition (1) Controverse (1) Loyauté (14) Pression (5) Professionnalisme (1) Sportivité (12) Tempérament (14)

Profil

Style d'entraînement Démocratique
Diplôme National A
Détermination 7
Gestion des joueurs 11
Motivation 13
Discipline 13
Satisfaction professionnelle
100%
Fatigue
0%
Rôle Recruteur en chef
Salaire 38.8K p/s
Contrat 14.03.2029

Performance

Comportement Bon
Efficacité de l'entraînement
54%
Développement des joueurs
60%
Prévention des blessures
60%
Mise en place tactique
70%

Événements récents

En formation continue maintenant
A participé à une réunion de recrutement maintenant
A recommandé une cible de transfert maintenant
A recommandé une cible de transfert maintenant
A recommandé une cible de transfert maintenant
En formation continue maintenant
En formation continue 7j
En formation continue 7j

Suivi en cours

231
Joueur Club Statut Capacité Confiance Observé Dernière observation Dernier vote
Vitinho Botafogo Actif 147 / 141 40% 1 18.01.2028 -
Henry Mosquera Bragantino Actif 142 / 127 40% 1 18.01.2028 -
Tiago Palacios Estudiantes Actif 134 / 117 40% 1 18.01.2028 -
Martín Ojeda Orlando City Actif 138 / 137 40% 10 11.01.2028 -
Germán Valera Elche Actif 137 / 130 40% 1 11.01.2028 -
Borja Mayoral Getafe Actif 148 / 149 40% 1 11.01.2028 -
David Ankeye Zeleznicar Pancevo Actif 118 / 125 65% 1 03.01.2028 Approuver
Musa Barrow Al-Khaleej Actif 156 / 127 40% 4 31.12.2027 -
Jhon Durán Al-Nassr Actif 142 / 138 40% 1 31.12.2027 -
Ruben van Bommel Ferencvaros Actif 139 / 138 40% 19 30.12.2027 -
Lucas Villalba Botafogo Actif 123 / 143 40% 2 30.12.2027 -
Dwight McNeil Crystal Palace Actif 153 / 147 40% 6 29.12.2027 -
Mateo Cassierra Atlético Mineiro Actif 123 / 135 40% 7 29.12.2027 -
Yusuke Matsuo Esteghlal Actif 119 / 128 40% 9 27.12.2027 -
Richarlison Brentford Actif 153 / 132 40% 2 27.12.2027 -
Assane Diao Lazio Actif 152 / 156 40% 4 27.12.2027 -
Breel Embolo Atlanta United FC Actif 138 / 138 40% 14 26.12.2027 -
Mohamed-Ali Cho Hull City Actif 143 / 148 40% 11 26.12.2027 -
Thierno Barry Norwich City Actif 135 / 158 40% 6 26.12.2027 -
Ammar Ramadan DAC Dunajska Streda Actif 127 / 131 40% 2 24.12.2027 -
Fábio Carvalho Sheffield Wednesday Actif 155 / 145 40% 4 23.12.2027 -
Fiete Arp OB Actif 142 / 147 40% 6 23.12.2027 -
Lorenzo Lucca Napoli Actif 149 / 160 40% 3 22.12.2027 -
Tyrese Campbell Sheffield United Actif 134 / 139 40% 3 21.12.2027 -
Tom Cannon Sheffield United Actif 131 / 126 40% 3 21.12.2027 -
William Osula Wrexham Actif 146 / 131 40% 6 21.12.2027 -
Tammy Abraham Aston Villa Actif 155 / 142 40% 1 19.12.2027 -
Yassir Zabiri Stade Rennais Actif 138 / 136 40% 1 19.12.2027 -
Jonathan David Juventus Actif 162 / 160 40% 6 17.12.2027 -
Brennan Johnson Stoke City Actif 148 / 136 40% 4 16.12.2027 -
Darwin Núñez Al-Hilal Actif 161 / 165 40% 1 16.12.2027 -
Everton Bala Levski Actif 133 / 127 40% 8 15.12.2027 -
Youssef En-Nesyri Al-Ittihad Actif 153 / 154 40% 15 11.12.2027 -
Levi Garcia Spartak Moscow Actif 143 / 134 40% 2 11.12.2027 -
Brian Brobbey Sunderland Actif 145 / 142 40% 2 07.12.2027 -
Gonzalo Fulham Actif 152 / 147 40% 3 07.12.2027 -
Zian Flemming Ipswich Town Actif 147 / 146 40% 6 05.12.2027 -
Thiago Brentford Actif 158 / 159 40% 4 02.12.2027 -
Jesus Ferreira Seattle Sounders Actif 127 / 125 40% 9 28.11.2027 -
Luca Langoni Colorado Rapids Actif 121 / 131 40% 6 27.11.2027 -
Yuma Suzuki Urawa Reds Actif 145 / 139 40% 5 27.11.2027 -
Luciano Gondou CSKA Moscow Actif 137 / 130 40% 3 26.11.2027 -
Callum O'Hare Sheffield United Actif 126 / 140 40% 4 23.11.2027 -
Arthur Cabral Botafogo Actif 131 / 142 40% 2 23.11.2027 -
Lewis Morgan SuperSport United Actif 132 / 122 40% 18 21.11.2027 -
Alexander Aravena Portland Timbers Actif 127 / 138 40% 1 20.11.2027 -
Pablo Felipe West Ham United Actif 145 / 137 40% 4 18.11.2027 -
Ez Abde Girona Actif 160 / 161 40% 9 16.11.2027 -
Joe Gelhardt Hull City Actif 149 / 149 40% 4 09.11.2027 -
Kevin Schade Brentford Actif 153 / 146 40% 4 09.11.2027 -
Gonzalo Plata Rosario Central Actif 126 / 140 40% 1 04.11.2027 -
Steven Bergwijn Al-Ittihad Actif 157 / 137 40% 1 02.11.2027 -
Josh Sargent Toronto FC Actif 121 / 141 40% 3 30.10.2027 -
Jarrod Bowen West Ham United Actif 168 / 155 40% 7 28.10.2027 -
Germán Berterame Vélez Actif 137 / 145 40% 2 27.10.2027 -
Mojmír Chytil NK Maribor Actif 130 / 131 40% 4 23.10.2027 -
Leonardo Campana New England Revolution Actif 121 / 120 40% 5 19.10.2027 -
Emmanuel Latte Lath Atlanta United FC Actif 138 / 144 40% 3 15.10.2027 -
Ferreirinha Sport Recife Actif 122 / 132 40% 1 14.10.2027 -
Ollie Watkins Estudiantes Actif 143 / 136 40% 4 11.10.2027 -
Liam Delap Nottingham Forest Actif 138 / 161 40% 2 11.10.2027 -
Alejo Veliz Bahia Actif 122 / 132 40% 1 09.10.2027 -
Yeferson Soteldo Bahia Actif 121 / 139 40% 2 04.10.2027 -
Liel Abada CF Montreal Actif 123 / 122 40% 3 25.09.2027 -
Karim Konaté Red Bull Salzburg Actif 144 / 149 40% 4 23.09.2027 -
Zeki Amdouni Burnley Actif 126 / 127 40% 4 23.09.2027 -
Louis Munteanu DC United Actif 121 / 116 40% 7 15.09.2027 -
Wessam Abou Ali Columbus Crew Actif 120 / 116 40% 4 11.09.2027 -
Timo Werner San Jose Earthquakes Actif 117 / 129 40% 6 04.09.2027 -
Armando Broja Burnley Actif 144 / 137 40% 2 02.09.2027 -
Moussa Dembélé CR Belouizdad Actif 132 / 143 40% 14 01.09.2027 -
Alan Velasco Boca Juniors Actif 123 / 139 40% 1 01.09.2027 -
Dávid Strelec Middlesbrough Actif 153 / 141 40% 2 30.08.2027 -
Alexey Miranchuk St. Gallen Actif 139 / 150 40% 2 30.08.2027 -
Sam Surridge Nashville SC Actif 125 / 147 40% 4 28.08.2027 -
Noah Okafor Leeds United Actif 134 / 135 40% 1 27.08.2027 -
Taty Castellanos West Ham United Actif 156 / 136 40% 1 27.08.2027 -
Willem Geubbels Lecce Actif 146 / 142 40% 4 20.08.2027 -
Giacomo Raspadori Atalanta Actif 151 / 148 40% 2 20.08.2027 -
Mateo Pellegrino Fiorentina Actif 136 / 131 40% 3 20.08.2027 -
Dejan Joveljić Seattle Sounders Actif 121 / 114 40% 4 19.08.2027 -
Federico Bonazzoli Cremonese Actif 128 / 145 40% 2 18.08.2027 -
Amin Sarr Hellas Verona Actif 125 / 136 40% 3 18.08.2027 -
Cristian Shpendi Cesena Actif 129 / 128 40% 5 11.08.2027 -
Keinan Davis Udinese Actif 140 / 135 40% 4 07.08.2027 -
Oli McBurnie Hull City Actif 127 / 137 40% 7 06.08.2027 -
Jens Odgaard Bologna Actif 151 / 139 40% 2 06.08.2027 -
Morgan Whittaker Middlesbrough Actif 133 / 127 40% 3 04.08.2027 -
Aune Heggebø West Bromwich Albion Actif 136 / 132 40% 2 27.07.2027 -
Nikola Vlašić Torino Actif 148 / 151 40% 2 26.07.2027 -
Oleksii Hutsuliak Polissia Actif 133 / 130 40% 4 18.07.2027 -
Yoane Wissa Newcastle United Actif 134 / 151 40% 11 17.07.2027 -
Rashid Rashid Sparta Prague Actif 147 / 138 40% 4 15.07.2027 -
Dany Mota Monza Actif 140 / 129 40% 8 15.07.2027 -
Allahyar Sayyadmanesh Lech Actif 134 / 128 40% 2 15.07.2027 -
Bertrand Traoré Sunderland Actif 130 / 131 40% 5 14.07.2027 -
Che Adams Torino Actif 133 / 154 40% 7 13.07.2027 -
Erik Prekop Gornik Zabrze Actif 139 / 133 40% 5 13.07.2027 -
Alexandr Sobolev Zenit Actif 140 / 135 40% 8 12.07.2027 -
Felipe Augusto Zenit Actif 139 / 133 40% 4 10.07.2027 -
Hwang Hee-Chan Wolverhampton Actif 125 / 128 40% 2 08.07.2027 -
Amir Hossein Hosseinzadeh Tractor Actif 132 / 138 40% 2 08.07.2027 -
Álvaro Rodríguez Bournemouth Actif 139 / 144 40% 2 06.07.2027 -
Lukas Nmecha Leeds United Actif 144 / 143 40% 2 05.07.2027 -
Prosper Obah Shakhtar Actif 131 / 136 40% 2 01.07.2027 -
Luka Kurtovic NK Domzale Actif 134 / 135 40% 2 28.06.2027 -
Ivan Toney Al-Ahli Actif 142 / 138 40% 7 15.06.2027 -
Malik Mothersille Stockport County Actif 119 / 127 40% 3 30.05.2027 -
Lorenzo Di Stefano Torres Actif 101 / 97 40% 1 30.05.2027 -
Calum Kavanagh Oldham Athletic Actif 87 / 87 40% 1 30.05.2027 -
Shahriar Dejagah Tractor Actif 138 / 111 40% 4 29.05.2027 -
Konan N'Dri Lecce Actif 123 / 129 40% 1 29.05.2027 -
Ivan Sergeev Dinamo Moscow Actif 130 / 121 40% 2 28.05.2027 -
Bosun Lawal Stoke City Actif 140 / 138 40% 1 27.05.2027 -
Harrison Burrows Sheffield United Actif 124 / 132 40% 1 27.05.2027 -
Welington Southampton Actif 128 / 127 40% 2 26.05.2027 -
Leo Castledine Middlesbrough Actif 126 / 124 40% 4 23.05.2027 -
Ryan Christie Bournemouth Actif 153 / 150 40% 1 23.05.2027 -
Nicolas Madsen Queens Park Rangers Actif 127 / 126 40% 1 23.05.2027 -
Bobby Thomas Coventry City Actif 135 / 126 40% 2 21.05.2027 -
Alfie Doughty Millwall Actif 128 / 138 40% 1 21.05.2027 -
Bernat Guiu Virtus Entella Actif 117 / 117 40% 1 18.05.2027 -
Rhian Brewster Oxford United Actif 124 / 124 40% 1 18.05.2027 -
Iwan Morgan Grimsby Town Actif 107 / 120 40% 1 18.05.2027 -
Joel Pohjanpalo Palermo Actif 134 / 132 40% 1 16.05.2027 -
Mees Rijks Bristol Rovers Actif 117 / 103 40% 1 14.05.2027 -
Kellen Fisher Norwich City Actif 128 / 112 40% 2 13.05.2027 -
Callum Doyle Wrexham Actif 122 / 130 40% 1 13.05.2027 -
Saša Lukić Ipswich Town Actif 144 / 153 40% 1 13.05.2027 -
Hamza Choudhury Leicester City Actif 124 / 113 40% 4 12.05.2027 -
Aidan Morris Middlesbrough Actif 140 / 134 40% 1 12.05.2027 -
Cameron Archer Southampton Actif 130 / 116 40% 1 10.05.2027 -
Scott Twine Bristol City Actif 137 / 131 40% 1 10.05.2027 -
Richard Koné Queens Park Rangers Actif 122 / 136 40% 1 07.05.2027 -
Ryoya Morishita Blackburn Rovers Actif 126 / 119 40% 2 06.05.2027 -
Japhet Tanganga Sheffield United Actif 120 / 146 40% 1 06.05.2027 -
Jack Currie Oxford United Actif 123 / 110 40% 1 06.05.2027 -
Max Bird Birmingham Actif 138 / 143 40% 1 06.05.2027 -
Ethan Galbraith Swansea City Actif 131 / 137 40% 1 06.05.2027 -
Justin Bijlow Genoa Actif 147 / 136 40% 1 06.05.2027 -
João Virgínia Wolverhampton Actif 117 / 114 40% 1 06.05.2027 -
Jason Knight Bristol City Actif 142 / 122 40% 1 03.05.2027 -
Derry Murkin Derby County Actif 125 / 141 40% 5 01.05.2027 -
Ola Aina Nottingham Forest Actif 137 / 135 40% 1 30.04.2027 -
Kenny Tete Fulham Actif 157 / 133 40% 2 27.04.2027 -
Manfred Ugalde Spartak Moscow Actif 127 / 136 40% 8 25.04.2027 -
Lee Bonis Chesterfield Actif 112 / 106 40% 1 25.04.2027 -
Victor Torp Coventry City Actif 114 / 140 40% 1 24.04.2027 -
Di'Shon Bernard Sheffield Wednesday Actif 123 / 122 40% 1 24.04.2027 -
Tyreece Campbell Charlton Athletic Actif 118 / 114 40% 1 22.04.2027 -
Ronald Swansea City Actif 119 / 133 40% 1 20.04.2027 -
Filippo Ranocchia Palermo Actif 123 / 142 40% 1 18.04.2027 -
Othmane Maamma Watford Actif 129 / 130 40% 1 15.04.2027 -
Ben Sheaf Wrexham Actif 142 / 130 40% 2 10.04.2027 -
Giorgos Giakoumakis Al Ain Actif 117 / 136 40% 2 10.04.2027 -
Brian De Keersmaecker Oxford United Actif 110 / 133 40% 1 07.04.2027 -
Isaiah Jones Luton Town Actif 122 / 114 40% 1 04.04.2027 -
Younes Ebnoutalib Eintracht Frankfurt Actif 142 / 143 40% 1 01.04.2027 -
Dennis Cirkin Queens Park Rangers Actif 138 / 122 40% 1 01.04.2027 -
Darlin Yongwa Norwich City Actif 110 / 126 40% 1 01.04.2027 -
Kortney Hause Middlesbrough Actif 131 / 115 40% 1 30.03.2027 -
Chris Mepham West Bromwich Albion Actif 124 / 117 40% 1 30.03.2027 -
Santiago Pierotti Lecce Actif 117 / 118 40% 2 16.03.2027 -
Lloyd Jones Charlton Athletic Actif 143 / 133 40% 1 16.03.2027 -
Adam Randell Bristol City Actif 124 / 134 40% 1 14.03.2027 -
Pablo Rodríguez Lech Actif 125 / 116 40% 1 09.03.2027 -
Gustavo Mantuan Zenit Actif 128 / 124 40% 1 06.03.2027 -
Isaac Essien WAFA Actif 89 / 105 40% 1 28.02.2027 -
Tommy Conway Middlesbrough Actif 116 / 141 40% 1 25.02.2027 -
Andrew Robertson Tottenham Actif 157 / 137 40% 3 24.02.2027 -
Oliver Skipp Leicester City Actif 142 / 135 40% 1 21.02.2027 -
Hany Mukhtar Spezia Actif 135 / 132 40% 1 19.02.2027 -
Shea Charles Southampton Actif 144 / 121 40% 1 18.02.2027 -
Crysencio Summerville Al-Hilal Actif 126 / 153 40% 1 08.02.2027 -
Ilyas Ansah Hull City Actif 115 / 119 40% 1 04.02.2027 -
Ross McCrorie Bristol City Actif 111 / 116 40% 1 02.02.2027 -
Karel Spáčil Viktoria Plzen Actif 137 / 125 40% 1 30.01.2027 -
Pedrinho Shakhtar Actif 129 / 141 40% 1 28.01.2027 -
Batxi Krasnodar Actif 122 / 135 40% 1 26.01.2027 -
Lukáš Červ Viktoria Plzen Actif 137 / 135 40% 1 26.01.2027 -
Nicolás Fernández Sassuolo Actif 122 / 115 40% 1 22.01.2027 -
Stanislav Agkatsev Sunderland Négociation 132 / 133 66% 1 01.01.2027 Approuver
Nikola Vasilj Al-Diriyah Actif 143 / 151 40% 5 23.12.2026 -
Daniel Iversen Preston Actif 137 / 120 40% 1 23.12.2026 -
Yousef Salech Cardiff City Actif 110 / 128 40% 1 19.12.2026 -
Domagoj Drožđek Tractor Actif 113 / 139 40% 2 17.12.2026 -
Iván Arboleda Sarmiento Actif 120 / 129 40% 1 15.12.2026 -
Facundo Cambeses Racing Club Actif 136 / 115 40% 2 14.12.2026 -
Daniel Karlsbakk Sarpsborg 08 Actif 121 / 136 40% 3 12.12.2026 -
Bruno Varela Najran Actif 112 / 138 40% 3 02.12.2026 -
Dayne St. Clair Inter Miami CF Actif 109 / 111 40% 1 02.12.2026 -
Bento Al-Nassr Actif 149 / 133 40% 3 29.11.2026 -
Leopold Wahlstedt Rosenborg Actif 130 / 107 40% 1 29.11.2026 -
Joaquín Correa Estudiantes Actif 138 / 130 40% 2 27.11.2026 -
Heorhii Bushchan Polissia Actif 117 / 131 40% 4 20.11.2026 -
Nicolás Sumavil Platense Actif 135 / 114 40% 1 19.11.2026 -
Tomás Marchiori Vélez Actif 138 / 131 40% 1 19.11.2026 -
Ignacio Chicco Aldosivi Actif 135 / 129 40% 1 16.11.2026 -
Maurits Kjærgaard Red Bull Salzburg Actif 127 / 136 40% 3 15.11.2026 -
Roberto Ramírez Godoy Cruz Actif 122 / 123 40% 1 14.11.2026 -
Dominik Fiola Haladas Actif 120 / 117 40% 1 11.11.2026 -
Lovre Rogić HNK Rijeka Actif 115 / 119 40% 2 09.11.2026 -
Paul Gartler Rapid Wien Actif 125 / 127 40% 1 09.11.2026 -
Dominik Holec Legia Actif 115 / 119 40% 1 06.11.2026 -
Zack Steffen Spartak Moscow Actif 132 / 124 40% 2 04.11.2026 -
Diego Romero Universitario Actif 112 / 110 40% 1 03.11.2026 -
Pep Biel Charlotte Football Club Actif 144 / 129 40% 1 02.11.2026 -
Chuchu Ramírez Nacional Actif 115 / 127 40% 3 28.10.2026 -
Ştefan Târnovanu FCSB Actif 118 / 112 40% 3 24.10.2026 -
Martin Zlomislić Qarabag Actif 121 / 124 40% 3 15.10.2026 -
Kein Sato FC Tokyo Actif 127 / 143 40% 1 15.10.2026 -
Lucas Bruera Carabobo Actif 104 / 114 40% 1 11.10.2026 -
Kévin Denkey FC Cincinnati Actif 121 / 134 40% 3 10.10.2026 -
Cristian Rivero Valencia Actif 130 / 138 40% 1 05.10.2026 -
Matevž Vidovšek Olimpija Ljubljana Actif 110 / 119 40% 1 02.10.2026 -
Omri Glazer Maccabi Haifa Actif 136 / 129 40% 3 01.10.2026 -
Gabriel Jesus Barcelona Actif 166 / 140 40% 2 26.09.2026 -
Daniel FC Dallas Actif 135 / 114 40% 1 25.09.2026 -
Kyrylo Fesiun Shakhtar Actif 108 / 127 40% 1 24.09.2026 -
Ľubomír Belko Viking Actif 106 / 136 40% 1 24.09.2026 -
Myrto Uzuni Austin FC Actif 140 / 133 40% 2 18.09.2026 -
Drake Callender Minnesota United FC Actif 119 / 115 40% 1 18.09.2026 -
Hendrik Bonmann Ludogorets Actif 132 / 125 40% 1 17.09.2026 -
Matt Freese New York City Actif 124 / 145 40% 1 13.09.2026 -
Haris Tabaković Red Bull Salzburg Actif 121 / 132 40% 1 11.09.2026 -
Daniil Khudyakov Sturm Graz Actif 108 / 107 40% 2 06.09.2026 -
Denis Adamov Zenit Actif 113 / 113 40% 1 18.08.2026 -
Omar Khribin Al Wahda Actif 123 / 130 40% 1 17.08.2026 -
Yacine Adli Al-Shabab Actif 120 / 153 40% 1 04.08.2026 -
Luka Jović AEK Actif 125 / 141 40% 1 03.08.2026 -
Nicolò Zaniolo Udinese Actif 134 / 129 40% 1 01.08.2026 -